createdAt,value
2023-02-13T00:01:18.451Z,2.50
2023-02-13T00:04:06.803Z,2.33
2023-02-13T00:06:54.992Z,2.42
2023-02-13T00:09:43.163Z,2.30
2023-02-13T00:12:32.917Z,2.37
2023-02-13T00:15:21.207Z,2.43
2023-02-13T00:18:09.503Z,1.90
2023-02-13T00:21:02.324Z,2.07
2023-02-13T00:23:50.518Z,2.20
2023-02-13T00:26:40.039Z,2.20
2023-02-13T00:29:29.620Z,2.20
2023-02-13T00:32:17.926Z,2.27
2023-02-13T00:35:06.751Z,1.80
2023-02-13T00:37:54.982Z,2.00
2023-02-13T00:40:43.184Z,1.70
2023-02-13T00:43:32.058Z,2.17
2023-02-13T00:46:21.989Z,2.37
2023-02-13T00:49:10.437Z,2.37
2023-02-13T00:51:58.646Z,2.17
2023-02-13T00:54:47.825Z,1.80
2023-02-13T00:57:36.271Z,2.33
2023-02-13T01:00:24.672Z,1.97
2023-02-13T01:03:15.242Z,2.03
2023-02-13T01:06:03.708Z,1.90
2023-02-13T01:08:52.474Z,2.10
2023-02-13T01:11:40.817Z,1.80
2023-02-13T01:14:28.959Z,1.70
2023-02-13T01:17:18.111Z,1.33
2023-02-13T01:20:08.906Z,2.10
2023-02-13T01:22:58.075Z,1.80
2023-02-13T01:25:46.245Z,1.63
2023-02-13T01:28:34.672Z,1.97
2023-02-13T01:31:23.403Z,1.50
2023-02-13T01:34:11.626Z,1.63
2023-02-13T01:37:01.525Z,1.80
2023-02-13T01:39:50.800Z,1.50
2023-02-13T01:42:39.473Z,1.77
2023-02-13T01:45:29.288Z,1.83
2023-02-13T01:48:20.983Z,1.40
2023-02-13T01:51:12.564Z,1.43
2023-02-13T01:54:05.728Z,1.37
2023-02-13T01:56:58.365Z,1.40
2023-02-13T01:59:50.633Z,1.47
2023-02-13T02:02:43.179Z,1.33
2023-02-13T02:05:33.653Z,1.33
2023-02-13T02:08:22.285Z,1.43
2023-02-13T02:11:18.706Z,1.10
2023-02-13T02:14:07.263Z,1.53
2023-02-13T02:16:55.836Z,1.20
2023-02-13T02:19:50.556Z,1.50
2023-02-13T02:23:09.520Z,1.47
2023-02-13T02:26:23.633Z,1.20
2023-02-13T02:29:31.539Z,1.53
2023-02-13T02:32:39.704Z,1.23
2023-02-13T02:35:38.121Z,1.30
2023-02-13T02:38:44.235Z,1.20
2023-02-13T02:41:42.701Z,1.10
2023-02-13T02:44:43.247Z,1.20
2023-02-13T02:47:56.107Z,1.20
2023-02-13T02:50:51.551Z,1.20
2023-02-13T02:53:44.934Z,1.10
2023-02-13T02:56:39.242Z,1.20
2023-02-13T02:59:47.260Z,1.20
2023-02-13T03:02:54.493Z,1.30
2023-02-13T03:06:04.319Z,0.93
2023-02-13T03:09:14.203Z,0.93
2023-02-13T03:12:22.777Z,1.30
2023-02-13T03:15:11.307Z,1.33
2023-02-13T03:18:19.233Z,0.90
2023-02-13T03:21:31.412Z,1.03
2023-02-13T03:24:27.118Z,1.00
2023-02-13T03:27:45.347Z,1.10
2023-02-13T03:30:44.770Z,1.10
2023-02-13T03:33:55.174Z,1.00
2023-02-13T03:37:06.653Z,1.20
2023-02-13T03:40:01.901Z,1.23
2023-02-13T03:42:54.674Z,1.00
2023-02-13T03:45:57.394Z,1.30
2023-02-13T03:49:06.012Z,1.00
2023-02-13T03:51:59.240Z,1.10
2023-02-13T03:55:08.617Z,1.10
2023-02-13T03:58:18.815Z,1.30
2023-02-13T04:01:09.880Z,1.07
2023-02-13T04:04:04.700Z,1.30
2023-02-13T04:06:57.401Z,1.00
2023-02-13T04:09:45.633Z,1.20
2023-02-13T04:12:43.890Z,1.07
2023-02-13T04:15:35.651Z,1.00
2023-02-13T04:18:27.124Z,1.30
2023-02-13T04:21:16.615Z,1.20
2023-02-13T04:24:05.368Z,1.20
2023-02-13T04:26:54.841Z,1.10
2023-02-13T04:29:43.271Z,1.13
2023-02-13T04:32:31.524Z,1.20
2023-02-13T04:35:19.916Z,0.77
2023-02-13T04:38:09.811Z,1.30
2023-02-13T04:40:58.437Z,1.10
2023-02-13T04:43:47.089Z,1.23
2023-02-13T04:46:35.504Z,1.00
2023-02-13T04:49:24.101Z,1.03
2023-02-13T04:52:12.272Z,1.10
2023-02-13T04:55:01.906Z,1.30
2023-02-13T04:57:52.896Z,1.03
2023-02-13T05:00:41.087Z,1.10
2023-02-13T05:03:29.376Z,1.17
2023-02-13T05:06:17.697Z,1.37
2023-02-13T05:09:06.095Z,1.10
2023-02-13T05:11:56.036Z,1.10
2023-02-13T05:14:44.205Z,1.30
2023-02-13T05:17:32.571Z,1.07
2023-02-13T05:20:21.138Z,1.30
2023-02-13T05:23:23.864Z,1.20
2023-02-13T05:26:12.057Z,0.97
2023-02-13T05:29:19.951Z,1.23
2023-02-13T05:32:08.399Z,1.20
2023-02-13T05:34:56.677Z,1.20
2023-02-13T05:37:44.841Z,1.00
2023-02-13T05:40:33.154Z,1.10
2023-02-13T05:43:21.667Z,1.40
2023-02-13T05:46:12.251Z,1.10
2023-02-13T05:49:00.560Z,1.10
2023-02-13T05:51:48.680Z,1.17
2023-02-13T05:54:38.521Z,1.10
2023-02-13T05:57:26.738Z,1.10
2023-02-13T06:00:16.499Z,1.10
2023-02-13T06:03:06.091Z,1.20
2023-02-13T06:05:54.832Z,1.10
2023-02-13T06:08:43.207Z,1.27
2023-02-13T06:11:31.358Z,1.10
2023-02-13T06:14:19.660Z,0.90
2023-02-13T06:17:07.946Z,1.40
2023-02-13T06:19:57.622Z,1.10
2023-02-13T06:22:48.680Z,1.20
2023-02-13T06:25:37.350Z,1.10
2023-02-13T06:28:25.759Z,0.90
2023-02-13T06:31:14.215Z,1.17
2023-02-13T06:34:02.451Z,1.50
2023-02-13T06:36:52.867Z,1.10
2023-02-13T06:39:41.031Z,1.30
2023-02-13T06:42:29.451Z,1.20
2023-02-13T06:45:17.923Z,1.20
2023-02-13T06:48:06.405Z,1.03
2023-02-13T06:50:54.912Z,1.10
2023-02-13T06:53:44.600Z,1.20
2023-02-13T06:56:32.941Z,1.10
2023-02-13T06:59:21.291Z,1.03
2023-02-13T07:02:11.214Z,1.10
2023-02-13T07:04:59.616Z,1.00
2023-02-13T07:07:47.935Z,1.00
2023-02-13T07:10:40.200Z,1.20
2023-02-13T07:13:28.569Z,1.40
2023-02-13T07:16:17.269Z,1.50
2023-02-13T07:19:05.607Z,1.10
2023-02-13T07:21:54.345Z,1.30
2023-02-13T07:24:42.618Z,1.10
2023-02-13T07:27:32.476Z,1.23
2023-02-13T07:30:20.836Z,1.20
2023-02-13T07:33:09.106Z,1.40
2023-02-13T07:35:57.240Z,1.00
2023-02-13T07:38:45.800Z,1.60
2023-02-13T07:41:34.027Z,1.20
2023-02-13T07:44:23.603Z,1.20
2023-02-13T07:47:12.087Z,1.10
2023-02-13T07:50:00.374Z,1.20
2023-02-13T07:52:54.788Z,1.10
2023-02-13T07:55:43.041Z,1.00
2023-02-13T07:58:31.391Z,1.17
2023-02-13T08:01:21.064Z,1.27
2023-02-13T08:04:09.344Z,1.27
2023-02-13T08:06:57.774Z,1.40
2023-02-13T08:10:04.164Z,1.00
2023-02-13T08:12:53.859Z,1.13
2023-02-13T08:15:44.494Z,1.20
2023-02-13T08:18:34.048Z,1.10
2023-02-13T08:21:22.380Z,1.10
2023-02-13T08:24:11.279Z,1.30
2023-02-13T08:26:59.618Z,1.30
2023-02-13T08:29:47.960Z,1.20
2023-02-13T08:32:52.834Z,1.10
2023-02-13T08:35:43.041Z,1.00
2023-02-13T08:38:31.356Z,1.00
2023-02-13T08:41:22.115Z,1.30
2023-02-13T08:44:11.112Z,1.20
2023-02-13T08:47:02.208Z,1.10
2023-02-13T08:49:50.525Z,1.10
2023-02-13T08:52:40.183Z,1.20
2023-02-13T08:55:29.930Z,1.13
2023-02-13T08:58:18.287Z,1.10
2023-02-13T09:01:08.050Z,1.10
2023-02-13T09:03:56.877Z,1.20
2023-02-13T09:06:45.692Z,1.20
2023-02-13T09:09:35.458Z,1.10
2023-02-13T09:12:23.833Z,1.07
2023-02-13T09:15:12.393Z,1.20
2023-02-13T09:18:00.700Z,1.30
2023-02-13T09:20:49.015Z,1.40
2023-02-13T09:23:38.754Z,1.40
2023-02-13T09:26:28.505Z,1.10
2023-02-13T09:29:16.887Z,0.87
2023-02-13T09:32:07.130Z,1.13
2023-02-13T09:34:55.474Z,1.20
2023-02-13T09:37:45.606Z,1.03
2023-02-13T09:40:41.528Z,1.00
2023-02-13T09:43:34.736Z,0.90
2023-02-13T09:46:29.574Z,1.33
2023-02-13T09:49:31.729Z,1.27
2023-02-13T09:52:20.426Z,0.97
2023-02-13T09:55:16.985Z,1.10
2023-02-13T09:58:11.724Z,1.47
2023-02-13T10:01:03.392Z,1.13
2023-02-13T10:04:16.351Z,1.40
2023-02-13T10:07:15.786Z,1.27
2023-02-13T10:10:12.850Z,1.23
2023-02-13T10:13:16.761Z,1.20
2023-02-13T10:16:11.068Z,1.20
2023-02-13T10:19:06.792Z,1.00
2023-02-13T10:21:59.323Z,1.10
2023-02-13T10:24:51.938Z,1.33
2023-02-13T10:27:44.124Z,1.40
2023-02-13T10:30:34.710Z,1.33
2023-02-13T10:33:29.680Z,1.33
2023-02-13T10:36:20.467Z,1.20
2023-02-13T10:39:23.000Z,1.30
2023-02-13T10:42:23.470Z,1.20
2023-02-13T10:45:27.351Z,1.10
2023-02-13T10:48:38.970Z,1.37
2023-02-13T10:51:36.083Z,1.10
2023-02-13T10:54:36.102Z,1.50
2023-02-13T10:57:29.168Z,1.20
2023-02-13T11:00:19.986Z,1.47
2023-02-13T11:03:19.203Z,1.30
2023-02-13T11:06:13.732Z,1.33
2023-02-13T11:09:02.257Z,1.70
2023-02-13T11:11:51.394Z,1.60
2023-02-13T11:14:54.336Z,1.50
2023-02-13T11:17:44.249Z,1.47
2023-02-13T11:20:39.419Z,1.53
2023-02-13T11:23:37.964Z,1.30
2023-02-13T11:26:32.465Z,1.50
2023-02-13T11:29:25.585Z,1.40
2023-02-13T11:32:22.581Z,1.63
2023-02-13T11:35:29.933Z,1.50
2023-02-13T11:38:25.479Z,1.53
2023-02-13T11:41:19.442Z,1.73
2023-02-13T11:44:20.970Z,1.60
2023-02-13T11:47:09.669Z,1.57
2023-02-13T11:49:58.161Z,1.30
2023-02-13T11:52:53.808Z,1.40
2023-02-13T11:55:42.842Z,1.57
2023-02-13T11:58:32.563Z,1.30
2023-02-13T12:01:28.448Z,1.40
2023-02-13T12:04:18.512Z,1.60
2023-02-13T12:07:16.271Z,1.60
2023-02-13T12:10:17.725Z,1.70
2023-02-13T12:13:14.755Z,1.50
2023-02-13T12:16:12.337Z,1.50
2023-02-13T12:19:05.218Z,1.50
2023-02-13T12:22:15.075Z,1.50
2023-02-13T12:25:25.066Z,1.60
2023-02-13T12:28:16.670Z,1.67
2023-02-13T12:31:40.580Z,1.70
2023-02-13T12:35:03.172Z,1.47
2023-02-13T12:38:00.245Z,1.73
2023-02-13T12:41:08.109Z,1.70
2023-02-13T12:44:38.074Z,1.70
2023-02-13T12:47:31.717Z,1.83
2023-02-13T12:50:31.613Z,1.60
2023-02-13T12:53:30.521Z,1.50
2023-02-13T12:56:40.068Z,2.10
2023-02-13T12:59:39.551Z,1.80
2023-02-13T13:02:50.888Z,1.50
2023-02-13T13:06:11.362Z,1.50
2023-02-13T13:09:20.745Z,1.90
2023-02-13T13:12:22.034Z,1.70
2023-02-13T13:15:16.209Z,1.63
2023-02-13T13:18:21.093Z,1.67
2023-02-13T13:21:21.321Z,1.87
2023-02-13T13:24:23.454Z,1.70
2023-02-13T13:27:20.590Z,1.93
2023-02-13T13:30:17.605Z,1.40
2023-02-13T13:33:14.560Z,1.80
2023-02-13T13:36:08.719Z,1.80
2023-02-13T13:39:04.862Z,1.80
2023-02-13T13:41:58.609Z,1.77
2023-02-13T13:45:04.696Z,1.90
2023-02-13T13:48:17.656Z,1.70
2023-02-13T13:51:07.402Z,1.90
2023-02-13T13:54:23.288Z,1.90
2023-02-13T13:57:12.879Z,1.90
2023-02-13T14:00:23.424Z,1.70
2023-02-13T14:03:37.428Z,2.10
2023-02-13T14:06:27.970Z,1.70
2023-02-13T14:09:41.184Z,1.70
2023-02-13T14:12:39.682Z,1.70
2023-02-13T14:15:50.934Z,2.00
2023-02-13T14:18:47.838Z,1.60
2023-02-13T14:21:36.125Z,1.70
2023-02-13T14:24:26.305Z,1.90
2023-02-13T14:27:23.284Z,1.67
2023-02-13T14:30:29.224Z,1.70
2023-02-13T14:33:26.823Z,1.67
2023-02-13T14:36:27.350Z,1.70
2023-02-13T14:39:25.901Z,1.57
2023-02-13T14:42:27.760Z,1.60
2023-02-13T14:45:19.708Z,1.87
2023-02-13T14:48:14.607Z,1.97
2023-02-13T14:51:04.749Z,1.90
2023-02-13T14:54:00.117Z,1.60
2023-02-13T14:56:52.029Z,1.50
2023-02-13T14:59:46.470Z,1.98
2023-02-13T15:02:38.273Z,1.60
2023-02-13T15:05:32.793Z,2.00
2023-02-13T15:08:23.686Z,1.80
2023-02-13T15:11:35.518Z,1.90
2023-02-13T15:14:32.663Z,1.63
2023-02-13T15:17:24.124Z,1.70
2023-02-13T15:20:24.184Z,1.70
2023-02-13T15:23:22.447Z,1.83
2023-02-13T15:26:22.786Z,1.90
2023-02-13T15:29:27.844Z,1.90
2023-02-13T15:32:20.501Z,1.63
2023-02-13T15:35:25.004Z,1.60
2023-02-13T15:38:21.110Z,1.95
2023-02-13T15:41:12.245Z,1.87
2023-02-13T15:44:02.247Z,2.10
2023-02-13T15:46:52.662Z,1.60
2023-02-13T15:49:46.397Z,1.87
2023-02-13T15:52:39.003Z,1.80
2023-02-13T15:55:29.167Z,1.80
2023-02-13T15:58:17.531Z,1.90
2023-02-13T16:01:09.115Z,2.00
2023-02-13T16:04:01.853Z,2.07
2023-02-13T16:06:53.599Z,1.77
2023-02-13T16:09:42.630Z,1.60
2023-02-13T16:12:30.928Z,1.67
2023-02-13T16:15:21.346Z,2.03
2023-02-13T16:18:20.009Z,2.00
2023-02-13T16:21:10.322Z,1.73
2023-02-13T16:24:03.103Z,1.67
2023-02-13T16:26:51.757Z,1.80
2023-02-13T16:29:45.910Z,1.50
2023-02-13T16:32:38.236Z,1.93
2023-02-13T16:35:31.812Z,2.10
2023-02-13T16:38:32.437Z,1.70
2023-02-13T16:41:32.254Z,1.40
2023-02-13T16:44:25.366Z,1.80
2023-02-13T16:47:23.427Z,1.80
2023-02-13T16:50:15.662Z,1.70
2023-02-13T16:53:05.529Z,1.60
2023-02-13T16:55:59.647Z,1.90
2023-02-13T16:58:47.969Z,1.57
2023-02-13T17:01:38.351Z,1.60
2023-02-13T17:04:27.144Z,1.77
2023-02-13T17:07:18.297Z,1.70
2023-02-13T17:10:18.374Z,1.60
2023-02-13T17:13:16.008Z,1.50
2023-02-13T17:16:07.009Z,2.00
2023-02-13T17:18:55.232Z,1.83
2023-02-13T17:21:43.745Z,1.83
2023-02-13T17:24:32.391Z,1.80
2023-02-13T17:27:22.880Z,2.00
2023-02-13T17:30:15.540Z,2.00
2023-02-13T17:33:07.532Z,1.87
2023-02-13T17:35:56.046Z,2.10
2023-02-13T17:38:44.260Z,1.90
2023-02-13T17:41:32.668Z,1.90
2023-02-13T17:44:22.268Z,1.97
2023-02-13T17:47:10.513Z,1.77
2023-02-13T17:50:08.929Z,1.93
2023-02-13T17:52:58.803Z,1.90
2023-02-13T17:55:47.410Z,2.03
2023-02-13T17:58:35.976Z,1.57
2023-02-13T18:01:30.280Z,1.73
2023-02-13T18:04:19.706Z,1.67
2023-02-13T18:07:08.181Z,2.00
2023-02-13T18:09:56.533Z,1.90
2023-02-13T18:12:45.193Z,1.77
2023-02-13T18:15:34.835Z,1.70
2023-02-13T18:18:24.632Z,1.77
2023-02-13T18:21:13.726Z,1.97
2023-02-13T18:24:02.228Z,1.73
2023-02-13T18:26:50.439Z,2.30
2023-02-13T18:29:38.886Z,1.80
2023-02-13T18:32:28.782Z,2.00
2023-02-13T18:35:19.012Z,1.70
2023-02-13T18:38:07.284Z,1.80
2023-02-13T18:40:56.415Z,2.00
2023-02-13T18:43:47.713Z,1.80
2023-02-13T18:46:36.193Z,1.87
2023-02-13T18:49:24.873Z,1.93
2023-02-13T18:52:14.540Z,1.70
2023-02-13T18:55:02.958Z,1.90
2023-02-13T18:57:53.412Z,2.23
2023-02-13T19:00:41.618Z,2.10
2023-02-13T19:03:29.969Z,1.73
2023-02-13T19:06:20.524Z,2.08
2023-02-13T19:09:10.634Z,2.20
2023-02-13T19:11:58.821Z,2.50
2023-02-13T19:14:47.887Z,2.10
2023-02-13T19:17:36.364Z,2.60
2023-02-13T19:20:25.302Z,1.90
2023-02-13T19:23:13.570Z,1.97
2023-02-13T19:26:07.649Z,2.10
2023-02-13T19:28:57.966Z,2.20
2023-02-13T19:31:46.641Z,2.50
2023-02-13T19:34:34.977Z,2.20
2023-02-13T19:37:25.236Z,2.00
2023-02-13T19:40:14.739Z,1.90
2023-02-13T19:43:04.422Z,2.10
2023-02-13T19:45:52.724Z,2.03
2023-02-13T19:48:41.638Z,2.10
2023-02-13T19:51:31.997Z,2.30
2023-02-13T19:54:20.442Z,2.20
2023-02-13T19:57:08.609Z,2.37
2023-02-13T20:00:02.162Z,2.10
2023-02-13T20:02:50.880Z,2.03
2023-02-13T20:05:40.957Z,2.43
2023-02-13T20:08:29.153Z,2.37
2023-02-13T20:11:22.618Z,2.37
2023-02-13T20:14:15.028Z,2.30
2023-02-13T20:17:04.973Z,2.23
2023-02-13T20:19:53.599Z,2.10
2023-02-13T20:22:41.921Z,2.40
2023-02-13T20:25:32.542Z,2.60
2023-02-13T20:28:21.068Z,2.40
2023-02-13T20:31:13.985Z,2.47
2023-02-13T20:34:06.712Z,2.60
2023-02-13T20:36:55.260Z,2.50
2023-02-13T20:39:43.653Z,2.80
2023-02-13T20:42:34.559Z,2.60
2023-02-13T20:45:22.986Z,2.57
2023-02-13T20:48:11.479Z,2.30
2023-02-13T20:51:02.667Z,2.60
2023-02-13T20:53:51.511Z,2.70
2023-02-13T20:56:39.694Z,2.37
2023-02-13T20:59:28.255Z,2.83
2023-02-13T21:02:18.593Z,2.43
2023-02-13T21:05:07.290Z,2.80
2023-02-13T21:07:56.977Z,2.83
2023-02-13T21:10:45.521Z,2.50
2023-02-13T21:13:34.253Z,2.67
2023-02-13T21:16:24.796Z,2.60
2023-02-13T21:19:16.229Z,3.00
2023-02-13T21:22:12.309Z,2.40
2023-02-13T21:25:02.013Z,2.43
2023-02-13T21:27:50.306Z,2.83
2023-02-13T21:30:38.734Z,3.00
2023-02-13T21:33:27.025Z,2.40
2023-02-13T21:36:15.313Z,2.90
2023-02-13T21:39:03.711Z,2.97
2023-02-13T21:41:53.384Z,2.37
2023-02-13T21:44:42.127Z,2.67
2023-02-13T21:47:30.522Z,2.70
2023-02-13T21:50:19.271Z,2.70
2023-02-13T21:53:07.432Z,2.70
2023-02-13T21:55:55.824Z,2.70
2023-02-13T21:58:47.030Z,2.50
2023-02-13T22:01:37.791Z,2.47
2023-02-13T22:04:27.713Z,2.80
2023-02-13T22:07:16.724Z,2.60
2023-02-13T22:10:05.177Z,2.53
2023-02-13T22:12:54.663Z,2.77
2023-02-13T22:15:45.566Z,3.27
2023-02-13T22:18:37.864Z,2.80
2023-02-13T22:21:28.212Z,3.03
2023-02-13T22:24:16.789Z,3.03
2023-02-13T22:27:05.217Z,2.57
2023-02-13T22:29:53.480Z,2.87
2023-02-13T22:32:43.249Z,3.00
2023-02-13T22:35:31.553Z,3.30
2023-02-13T22:38:20.030Z,2.80
2023-02-13T22:41:09.375Z,3.10
2023-02-13T22:43:58.284Z,3.00
2023-02-13T22:46:46.542Z,3.10
2023-02-13T22:49:36.373Z,2.80
2023-02-13T22:52:24.700Z,3.30
2023-02-13T22:55:13.296Z,3.53
2023-02-13T22:58:01.844Z,3.27
2023-02-13T23:00:50.015Z,3.40
2023-02-13T23:03:38.248Z,3.20
2023-02-13T23:06:28.592Z,3.40
2023-02-13T23:09:17.002Z,3.77
2023-02-13T23:12:25.523Z,3.27
2023-02-13T23:15:15.439Z,3.00
2023-02-13T23:18:17.988Z,3.43
2023-02-13T23:21:07.364Z,2.93
2023-02-13T23:23:56.955Z,3.23
2023-02-13T23:26:45.569Z,3.40
2023-02-13T23:29:33.767Z,3.37
2023-02-13T23:32:22.113Z,3.37
2023-02-13T23:35:10.951Z,3.20
2023-02-13T23:37:59.194Z,3.33
2023-02-13T23:40:48.981Z,3.70
2023-02-13T23:43:37.426Z,3.57
2023-02-13T23:46:25.921Z,3.10
2023-02-13T23:49:14.228Z,3.27
2023-02-13T23:52:02.419Z,3.23
2023-02-13T23:54:50.649Z,3.77
2023-02-13T23:57:40.240Z,3.50
